Epworth, IA

8:42 AM CDT on October 14, 2019 (GMT -0500)
Casey | | Change Station
Active Advisory: Flood Warning

Elev 1030 ft 42.44 °N, 90.93 °W | Updated 13 seconds ago

Clear
Clear
36.3 °F
Feels Like 36 °F
N
2.5
Wind Variable Wind from SSE
Gusts 3.1 mph

Today
High -- | Low -- °F
--% Chance of Precip.
Yesterday
High -- | Low -- °F
Precip. -- in
Pressure 30.09 in
Visibility 10.0 miles
Clouds Clear
Windchill 36 °F
Dew Point 30 °F
Humidity 77%
Rainfall 0.00 in
Snow Depth Not available.
7:15 AM 6:23 PM
Full, 100% visible
METAR KDBQ 141253Z 20003KT 10SM CLR M01/M02 A3006 RMK AO2 SLP188 T10061022
Pressure 30.09 in
Visibility 10.0 miles
Clouds Clear
Windchill 36 °F
Dew Point 30 °F
Humidity 77%
Rainfall 0.00 in
Snow Depth Not available.
7:15 AM 6:23 PM
Full, 100% visible
METAR KDBQ 141253Z 20003KT 10SM CLR M01/M02 A3006 RMK AO2 SLP188 T10061022

Get Your Daily Forecast Email!

Thanks for signing up!

Be on the lookout for a verification email in your inbox.

You'll start receiving severe weather alerts in your inbox..

×

10-Day Weather Forecast

Almanac

Astronomy

Oct. 14, 2019 Rise Set
Actual Time
Civil Twilight
Nautical Twilight
Astronomical Twilight
Moon
Length of Visible Light
Length of Day
Tomorrow will be .
, % of the Moon is Illuminated

Today's Extremes

State Highs State Lows

Community

WunderPhotos

Category 6

Welcome to Category 6. This is the collective home for Weather Underground's featured writeups by Dr. Jeff Masters (right), Bob Henson (left), Chris Burt, and other regular contributors.

Nearby

Air Quality

  Air Quality AQ Index Pollutant
Not available.

Snow Depth

Station Depth Elevation

Earthquake Activity

City Distance Mag. Time & Date
Minimum magnitude displayed is 2.5.

Coastal Water Temperatures

Place Temperature

Stations

Nearby Weather Stations

Station Location Temp. Windchill Dew Point Humidity Wind Precip. Elev Updated Type
                   

Watches & Warnings

Flood Warning
Issued: 9:43 PM CDT Oct. 13, 2019 – National Weather Service

... Flood Warning now in effect until Thursday...

The Flood Warning continues for
the Mississippi River at Dubuque.
* Until Thursday.
* At 8:30 PM Sunday the stage was 17.9 feet and rising.
* Flood stage is 17.0 feet.
* Minor flooding is occurring.
* Forecast, fall below flood stage Thursday.
* Impact, at 18.0 feet, water reaches the bottom of the East Dubuque
flats levee.


Lat... Lon 4254 9060 4235 9039 4228 9046 4247 9068
      4253 9068





943 PM CDT sun Oct 13 2019

... Flood Warning remains in effect until Tuesday morning...

The Flood Warning continues for
the Mississippi River at Dubuque ld11.
* Until Tuesday morning.
* At 9:00 PM Sunday the stage was 16.2 feet and steady.
* Flood stage is 16.0 feet.
* Minor flooding is occurring.
* Forecast, fall below flood stage Tuesday morning.



Lat... Lon 4266 9070 4254 9060 4253 9068 4265 9090
      4270 9090